sensor_id;sensor_type;location;lat;lon;timestamp;P1;durP1;ratioP1;P2;durP2;ratioP2
23474;SDS011;11910;52.086;21.066;2022-08-19T00:01:49;16.63;;;14.55;;
23474;SDS011;11910;52.086;21.066;2022-08-19T00:04:17;17.50;;;14.80;;
23474;SDS011;11910;52.086;21.066;2022-08-19T00:06:45;18.33;;;16.33;;
23474;SDS011;11910;52.086;21.066;2022-08-19T00:09:12;16.77;;;15.10;;
23474;SDS011;11910;52.086;21.066;2022-08-19T00:11:40;17.05;;;15.25;;
23474;SDS011;11910;52.086;21.066;2022-08-19T00:14:06;16.25;;;14.40;;
23474;SDS011;11910;52.086;21.066;2022-08-19T00:16:34;14.80;;;13.02;;
23474;SDS011;11910;52.086;21.066;2022-08-19T00:19:01;16.15;;;14.23;;
23474;SDS011;11910;52.086;21.066;2022-08-19T00:21:27;16.65;;;14.93;;
23474;SDS011;11910;52.086;21.066;2022-08-19T00:23:53;19.42;;;17.52;;
23474;SDS011;11910;52.086;21.066;2022-08-19T00:26:23;18.55;;;16.60;;
23474;SDS011;11910;52.086;21.066;2022-08-19T00:28:49;17.08;;;15.43;;
23474;SDS011;11910;52.086;21.066;2022-08-19T00:31:15;17.73;;;14.93;;
23474;SDS011;11910;52.086;21.066;2022-08-19T00:33:41;13.50;;;11.93;;
23474;SDS011;11910;52.086;21.066;2022-08-19T00:36:08;14.70;;;13.15;;
23474;SDS011;11910;52.086;21.066;2022-08-19T00:38:35;14.43;;;12.98;;
23474;SDS011;11910;52.086;21.066;2022-08-19T00:41:02;15.88;;;14.18;;
23474;SDS011;11910;52.086;21.066;2022-08-19T00:43:29;13.95;;;12.65;;
23474;SDS011;11910;52.086;21.066;2022-08-19T00:45:55;14.35;;;13.05;;
23474;SDS011;11910;52.086;21.066;2022-08-19T00:48:21;16.45;;;14.85;;
23474;SDS011;11910;52.086;21.066;2022-08-19T00:50:49;17.20;;;15.60;;
23474;SDS011;11910;52.086;21.066;2022-08-19T00:53:19;19.25;;;15.77;;
23474;SDS011;11910;52.086;21.066;2022-08-19T00:55:48;20.30;;;17.98;;
23474;SDS011;11910;52.086;21.066;2022-08-19T00:58:18;20.95;;;18.90;;
23474;SDS011;11910;52.086;21.066;2022-08-19T01:00:46;19.48;;;16.67;;
23474;SDS011;11910;52.086;21.066;2022-08-19T01:03:13;19.52;;;17.50;;
23474;SDS011;11910;52.086;21.066;2022-08-19T01:05:42;17.52;;;15.70;;
23474;SDS011;11910;52.086;21.066;2022-08-19T01:08:09;15.45;;;13.23;;
23474;SDS011;11910;52.086;21.066;2022-08-19T01:10:37;15.75;;;14.02;;
23474;SDS011;11910;52.086;21.066;2022-08-19T01:13:06;14.75;;;13.25;;
23474;SDS011;11910;52.086;21.066;2022-08-19T01:15:39;18.20;;;15.02;;
23474;SDS011;11910;52.086;21.066;2022-08-19T01:18:09;16.30;;;14.60;;
23474;SDS011;11910;52.086;21.066;2022-08-19T01:20:36;15.90;;;14.43;;
23474;SDS011;11910;52.086;21.066;2022-08-19T01:23:03;16.65;;;15.05;;
23474;SDS011;11910;52.086;21.066;2022-08-19T01:25:31;17.42;;;15.52;;
23474;SDS011;11910;52.086;21.066;2022-08-19T01:28:08;18.05;;;15.98;;
23474;SDS011;11910;52.086;21.066;2022-08-19T01:30:50;18.52;;;16.17;;
23474;SDS011;11910;52.086;21.066;2022-08-19T01:33:17;18.33;;;16.52;;
23474;SDS011;11910;52.086;21.066;2022-08-19T01:35:44;18.15;;;14.82;;
23474;SDS011;11910;52.086;21.066;2022-08-19T01:38:19;16.27;;;14.70;;
23474;SDS011;11910;52.086;21.066;2022-08-19T01:40:46;16.00;;;14.32;;
23474;SDS011;11910;52.086;21.066;2022-08-19T01:43:12;12.90;;;11.70;;
23474;SDS011;11910;52.086;21.066;2022-08-19T01:45:38;13.40;;;12.25;;
23474;SDS011;11910;52.086;21.066;2022-08-19T01:48:05;16.10;;;13.65;;
23474;SDS011;11910;52.086;21.066;2022-08-19T01:50:32;17.23;;;15.43;;
23474;SDS011;11910;52.086;21.066;2022-08-19T01:52:59;17.58;;;15.77;;
23474;SDS011;11910;52.086;21.066;2022-08-19T01:55:27;14.93;;;13.63;;
23474;SDS011;11910;52.086;21.066;2022-08-19T01:57:54;12.75;;;11.52;;
23474;SDS011;11910;52.086;21.066;2022-08-19T02:00:23;15.98;;;14.48;;
23474;SDS011;11910;52.086;21.066;2022-08-19T02:02:52;16.30;;;14.73;;
23474;SDS011;11910;52.086;21.066;2022-08-19T02:05:18;16.23;;;14.52;;
23474;SDS011;11910;52.086;21.066;2022-08-19T02:07:46;14.90;;;13.45;;
23474;SDS011;11910;52.086;21.066;2022-08-19T02:10:13;11.73;;;10.63;;
23474;SDS011;11910;52.086;21.066;2022-08-19T02:12:41;11.98;;;10.77;;
23474;SDS011;11910;52.086;21.066;2022-08-19T02:15:06;14.38;;;12.15;;
23474;SDS011;11910;52.086;21.066;2022-08-19T02:17:32;18.05;;;15.18;;
23474;SDS011;11910;52.086;21.066;2022-08-19T02:19:58;17.25;;;14.35;;
23474;SDS011;11910;52.086;21.066;2022-08-19T02:22:24;16.10;;;14.20;;
23474;SDS011;11910;52.086;21.066;2022-08-19T02:24:53;16.10;;;14.43;;
23474;SDS011;11910;52.086;21.066;2022-08-19T02:27:19;17.20;;;15.45;;
23474;SDS011;11910;52.086;21.066;2022-08-19T02:29:46;17.33;;;14.77;;
23474;SDS011;11910;52.086;21.066;2022-08-19T02:32:13;19.98;;;17.98;;
23474;SDS011;11910;52.086;21.066;2022-08-19T02:34:39;16.88;;;14.77;;
23474;SDS011;11910;52.086;21.066;2022-08-19T02:37:05;16.85;;;15.18;;
23474;SDS011;11910;52.086;21.066;2022-08-19T02:39:51;15.93;;;12.30;;
23474;SDS011;11910;52.086;21.066;2022-08-19T02:42:17;14.95;;;13.45;;
23474;SDS011;11910;52.086;21.066;2022-08-19T02:44:43;17.83;;;15.35;;
23474;SDS011;11910;52.086;21.066;2022-08-19T02:47:09;20.92;;;15.57;;
23474;SDS011;11910;52.086;21.066;2022-08-19T02:49:35;15.65;;;14.13;;
23474;SDS011;11910;52.086;21.066;2022-08-19T02:52:00;20.05;;;16.92;;
23474;SDS011;11910;52.086;21.066;2022-08-19T02:54:26;16.00;;;14.38;;
23474;SDS011;11910;52.086;21.066;2022-08-19T02:56:52;14.55;;;13.05;;
23474;SDS011;11910;52.086;21.066;2022-08-19T02:59:18;13.98;;;12.48;;
23474;SDS011;11910;52.086;21.066;2022-08-19T03:01:44;15.65;;;14.15;;
23474;SDS011;11910;52.086;21.066;2022-08-19T03:04:11;15.02;;;13.30;;
23474;SDS011;11910;52.086;21.066;2022-08-19T03:06:40;14.82;;;13.32;;
23474;SDS011;11910;52.086;21.066;2022-08-19T03:09:08;15.57;;;13.80;;
23474;SDS011;11910;52.086;21.066;2022-08-19T03:11:34;16.38;;;14.77;;
23474;SDS011;11910;52.086;21.066;2022-08-19T03:14:00;15.90;;;14.30;;
23474;SDS011;11910;52.086;21.066;2022-08-19T03:16:28;13.85;;;12.55;;
23474;SDS011;11910;52.086;21.066;2022-08-19T03:18:56;15.70;;;14.02;;
23474;SDS011;11910;52.086;21.066;2022-08-19T03:21:25;16.45;;;14.70;;
23474;SDS011;11910;52.086;21.066;2022-08-19T03:23:55;19.25;;;15.32;;
23474;SDS011;11910;52.086;21.066;2022-08-19T03:26:22;18.88;;;16.95;;
23474;SDS011;11910;52.086;21.066;2022-08-19T03:28:47;20.85;;;16.95;;
23474;SDS011;11910;52.086;21.066;2022-08-19T03:31:15;22.08;;;17.45;;
23474;SDS011;11910;52.086;21.066;2022-08-19T03:33:42;21.35;;;15.77;;
23474;SDS011;11910;52.086;21.066;2022-08-19T03:38:46;20.17;;;18.17;;
23474;SDS011;11910;52.086;21.066;2022-08-19T03:41:17;17.13;;;15.40;;
23474;SDS011;11910;52.086;21.066;2022-08-19T03:46:18;17.30;;;15.48;;
23474;SDS011;11910;52.086;21.066;2022-08-19T03:48:46;16.30;;;14.77;;
23474;SDS011;11910;52.086;21.066;2022-08-19T03:51:18;16.52;;;14.68;;
23474;SDS011;11910;52.086;21.066;2022-08-19T03:53:56;17.38;;;15.57;;
23474;SDS011;11910;52.086;21.066;2022-08-19T03:56:23;18.92;;;16.92;;
23474;SDS011;11910;52.086;21.066;2022-08-19T03:58:50;15.52;;;13.40;;
23474;SDS011;11910;52.086;21.066;2022-08-19T04:01:18;17.55;;;15.90;;
23474;SDS011;11910;52.086;21.066;2022-08-19T04:03:46;19.75;;;17.75;;
23474;SDS011;11910;52.086;21.066;2022-08-19T04:06:13;14.38;;;13.07;;
23474;SDS011;11910;52.086;21.066;2022-08-19T04:08:41;15.13;;;13.63;;
23474;SDS011;11910;52.086;21.066;2022-08-19T04:11:15;18.77;;;17.08;;
23474;SDS011;11910;52.086;21.066;2022-08-19T04:13:43;20.35;;;18.15;;
23474;SDS011;11910;52.086;21.066;2022-08-19T04:16:09;17.67;;;15.52;;
23474;SDS011;11910;52.086;21.066;2022-08-19T04:18:36;22.17;;;16.95;;
23474;SDS011;11910;52.086;21.066;2022-08-19T04:21:03;20.10;;;18.30;;
23474;SDS011;11910;52.086;21.066;2022-08-19T04:23:31;22.83;;;20.70;;
23474;SDS011;11910;52.086;21.066;2022-08-19T04:25:57;23.25;;;20.90;;
23474;SDS011;11910;52.086;21.066;2022-08-19T04:28:23;21.98;;;19.45;;
23474;SDS011;11910;52.086;21.066;2022-08-19T04:30:50;23.38;;;20.98;;
23474;SDS011;11910;52.086;21.066;2022-08-19T04:33:18;24.45;;;21.75;;
23474;SDS011;11910;52.086;21.066;2022-08-19T04:35:47;23.20;;;20.90;;
23474;SDS011;11910;52.086;21.066;2022-08-19T04:38:15;24.15;;;20.30;;
23474;SDS011;11910;52.086;21.066;2022-08-19T04:40:44;24.17;;;20.70;;
23474;SDS011;11910;52.086;21.066;2022-08-19T04:43:33;27.70;;;24.83;;
23474;SDS011;11910;52.086;21.066;2022-08-19T04:46:07;26.13;;;23.40;;
23474;SDS011;11910;52.086;21.066;2022-08-19T04:48:34;27.85;;;25.05;;
23474;SDS011;11910;52.086;21.066;2022-08-19T04:51:00;28.90;;;25.80;;
23474;SDS011;11910;52.086;21.066;2022-08-19T04:53:26;27.90;;;22.88;;
23474;SDS011;11910;52.086;21.066;2022-08-19T04:55:54;29.65;;;24.60;;
23474;SDS011;11910;52.086;21.066;2022-08-19T04:58:21;27.45;;;24.65;;
23474;SDS011;11910;52.086;21.066;2022-08-19T05:00:48;26.45;;;22.92;;
23474;SDS011;11910;52.086;21.066;2022-08-19T05:03:17;23.30;;;20.88;;
23474;SDS011;11910;52.086;21.066;2022-08-19T05:05:44;26.50;;;23.13;;
23474;SDS011;11910;52.086;21.066;2022-08-19T05:08:13;27.40;;;22.17;;
23474;SDS011;11910;52.086;21.066;2022-08-19T05:10:45;24.05;;;21.48;;
23474;SDS011;11910;52.086;21.066;2022-08-19T05:13:15;26.27;;;20.83;;
23474;SDS011;11910;52.086;21.066;2022-08-19T05:15:44;21.88;;;19.15;;
23474;SDS011;11910;52.086;21.066;2022-08-19T05:18:18;22.27;;;19.45;;
23474;SDS011;11910;52.086;21.066;2022-08-19T05:21:05;22.75;;;20.33;;
23474;SDS011;11910;52.086;21.066;2022-08-19T05:23:51;26.45;;;19.40;;
23474;SDS011;11910;52.086;21.066;2022-08-19T05:26:17;26.58;;;20.15;;
23474;SDS011;11910;52.086;21.066;2022-08-19T05:28:42;25.13;;;17.98;;
23474;SDS011;11910;52.086;21.066;2022-08-19T05:31:08;23.30;;;18.98;;
23474;SDS011;11910;52.086;21.066;2022-08-19T05:33:34;23.55;;;18.40;;
23474;SDS011;11910;52.086;21.066;2022-08-19T05:36:00;23.77;;;18.38;;
23474;SDS011;11910;52.086;21.066;2022-08-19T05:38:27;21.38;;;17.17;;
23474;SDS011;11910;52.086;21.066;2022-08-19T05:40:53;21.95;;;18.30;;
23474;SDS011;11910;52.086;21.066;2022-08-19T05:43:19;20.05;;;16.13;;
23474;SDS011;11910;52.086;21.066;2022-08-19T05:45:45;21.38;;;18.02;;
23474;SDS011;11910;52.086;21.066;2022-08-19T05:48:11;27.33;;;15.60;;
23474;SDS011;11910;52.086;21.066;2022-08-19T05:50:38;22.58;;;17.42;;
23474;SDS011;11910;52.086;21.066;2022-08-19T05:53:05;21.02;;;17.02;;
23474;SDS011;11910;52.086;21.066;2022-08-19T05:55:31;19.23;;;16.95;;
23474;SDS011;11910;52.086;21.066;2022-08-19T05:57:57;23.42;;;17.45;;
23474;SDS011;11910;52.086;21.066;2022-08-19T06:00:23;19.38;;;17.08;;
23474;SDS011;11910;52.086;21.066;2022-08-19T06:02:49;18.63;;;16.33;;
23474;SDS011;11910;52.086;21.066;2022-08-19T06:05:16;20.63;;;16.15;;
23474;SDS011;11910;52.086;21.066;2022-08-19T06:07:41;19.08;;;16.35;;
23474;SDS011;11910;52.086;21.066;2022-08-19T06:10:08;27.15;;;16.98;;
23474;SDS011;11910;52.086;21.066;2022-08-19T06:12:35;18.67;;;15.55;;
23474;SDS011;11910;52.086;21.066;2022-08-19T06:15:03;21.65;;;16.35;;
23474;SDS011;11910;52.086;21.066;2022-08-19T06:17:31;17.70;;;15.82;;
23474;SDS011;11910;52.086;21.066;2022-08-19T06:19:59;20.35;;;15.70;;
23474;SDS011;11910;52.086;21.066;2022-08-19T06:22:25;20.25;;;15.88;;
23474;SDS011;11910;52.086;21.066;2022-08-19T06:24:51;24.83;;;15.93;;
23474;SDS011;11910;52.086;21.066;2022-08-19T06:27:18;19.17;;;14.20;;
23474;SDS011;11910;52.086;21.066;2022-08-19T06:29:45;20.13;;;15.27;;
23474;SDS011;11910;52.086;21.066;2022-08-19T06:32:11;22.83;;;14.38;;
23474;SDS011;11910;52.086;21.066;2022-08-19T06:34:40;18.75;;;13.85;;
23474;SDS011;11910;52.086;21.066;2022-08-19T06:37:06;18.30;;;14.13;;
23474;SDS011;11910;52.086;21.066;2022-08-19T06:39:33;21.73;;;14.60;;
23474;SDS011;11910;52.086;21.066;2022-08-19T06:42:04;17.10;;;13.82;;
23474;SDS011;11910;52.086;21.066;2022-08-19T06:44:33;18.50;;;14.93;;
23474;SDS011;11910;52.086;21.066;2022-08-19T06:47:01;19.42;;;14.93;;
23474;SDS011;11910;52.086;21.066;2022-08-19T06:49:29;18.30;;;13.77;;
23474;SDS011;11910;52.086;21.066;2022-08-19T06:51:58;21.00;;;14.93;;
23474;SDS011;11910;52.086;21.066;2022-08-19T06:54:25;19.92;;;16.33;;
23474;SDS011;11910;52.086;21.066;2022-08-19T06:56:50;20.75;;;14.82;;
23474;SDS011;11910;52.086;21.066;2022-08-19T06:59:20;17.67;;;13.85;;
23474;SDS011;11910;52.086;21.066;2022-08-19T07:01:51;23.75;;;13.68;;
23474;SDS011;11910;52.086;21.066;2022-08-19T07:04:20;17.67;;;13.70;;
23474;SDS011;11910;52.086;21.066;2022-08-19T07:06:49;19.52;;;14.48;;
23474;SDS011;11910;52.086;21.066;2022-08-19T07:09:17;23.02;;;14.48;;
23474;SDS011;11910;52.086;21.066;2022-08-19T07:11:44;20.13;;;14.02;;
23474;SDS011;11910;52.086;21.066;2022-08-19T07:14:11;17.05;;;12.88;;
23474;SDS011;11910;52.086;21.066;2022-08-19T07:16:37;17.75;;;13.45;;
23474;SDS011;11910;52.086;21.066;2022-08-19T07:19:03;20.98;;;13.88;;
23474;SDS011;11910;52.086;21.066;2022-08-19T07:21:28;19.08;;;12.52;;
23474;SDS011;11910;52.086;21.066;2022-08-19T07:23:55;16.13;;;12.80;;
23474;SDS011;11910;52.086;21.066;2022-08-19T07:26:24;17.75;;;13.60;;
23474;SDS011;11910;52.086;21.066;2022-08-19T07:28:51;17.30;;;13.02;;
23474;SDS011;11910;52.086;21.066;2022-08-19T07:31:19;17.85;;;12.43;;
23474;SDS011;11910;52.086;21.066;2022-08-19T07:33:47;17.85;;;12.77;;
23474;SDS011;11910;52.086;21.066;2022-08-19T07:36:16;17.98;;;13.13;;
23474;SDS011;11910;52.086;21.066;2022-08-19T07:38:45;18.67;;;13.23;;
23474;SDS011;11910;52.086;21.066;2022-08-19T07:41:15;18.25;;;13.00;;
23474;SDS011;11910;52.086;21.066;2022-08-19T07:43:45;17.70;;;12.93;;
23474;SDS011;11910;52.086;21.066;2022-08-19T07:46:12;18.83;;;13.13;;
23474;SDS011;11910;52.086;21.066;2022-08-19T07:48:38;17.25;;;12.15;;
23474;SDS011;11910;52.086;21.066;2022-08-19T07:51:05;15.55;;;12.93;;
23474;SDS011;11910;52.086;21.066;2022-08-19T07:53:33;14.88;;;12.52;;
23474;SDS011;11910;52.086;21.066;2022-08-19T07:56:00;15.73;;;12.05;;
23474;SDS011;11910;52.086;21.066;2022-08-19T07:58:27;14.48;;;12.10;;
23474;SDS011;11910;52.086;21.066;2022-08-19T08:00:53;19.60;;;13.38;;
23474;SDS011;11910;52.086;21.066;2022-08-19T08:03:20;18.08;;;13.38;;
23474;SDS011;11910;52.086;21.066;2022-08-19T08:06:07;19.10;;;12.90;;
23474;SDS011;11910;52.086;21.066;2022-08-19T08:08:51;15.65;;;12.05;;
23474;SDS011;11910;52.086;21.066;2022-08-19T08:11:35;16.25;;;11.25;;
23474;SDS011;11910;52.086;21.066;2022-08-19T08:14:05;17.23;;;11.95;;
23474;SDS011;11910;52.086;21.066;2022-08-19T08:16:35;17.90;;;11.88;;
23474;SDS011;11910;52.086;21.066;2022-08-19T08:19:03;17.58;;;11.85;;
23474;SDS011;11910;52.086;21.066;2022-08-19T08:21:31;18.45;;;12.32;;
23474;SDS011;11910;52.086;21.066;2022-08-19T08:23:57;13.52;;;11.35;;
23474;SDS011;11910;52.086;21.066;2022-08-19T08:26:23;16.25;;;11.73;;
23474;SDS011;11910;52.086;21.066;2022-08-19T08:28:49;19.98;;;12.18;;
23474;SDS011;11910;52.086;21.066;2022-08-19T08:31:16;15.45;;;11.38;;
23474;SDS011;11910;52.086;21.066;2022-08-19T08:33:44;14.25;;;10.57;;
23474;SDS011;11910;52.086;21.066;2022-08-19T08:36:10;16.05;;;10.95;;
23474;SDS011;11910;52.086;21.066;2022-08-19T08:38:38;12.25;;;10.02;;
23474;SDS011;11910;52.086;21.066;2022-08-19T08:41:07;15.73;;;9.77;;
23474;SDS011;11910;52.086;21.066;2022-08-19T08:43:44;17.40;;;10.15;;
23474;SDS011;11910;52.086;21.066;2022-08-19T08:46:14;18.23;;;10.13;;
23474;SDS011;11910;52.086;21.066;2022-08-19T08:49:18;12.23;;;10.10;;
23474;SDS011;11910;52.086;21.066;2022-08-19T08:54:40;15.82;;;10.38;;
23474;SDS011;11910;52.086;21.066;2022-08-19T08:57:11;15.50;;;9.82;;
23474;SDS011;11910;52.086;21.066;2022-08-19T08:59:40;15.23;;;9.88;;
23474;SDS011;11910;52.086;21.066;2022-08-19T09:02:08;13.25;;;9.82;;
23474;SDS011;11910;52.086;21.066;2022-08-19T09:04:35;16.50;;;9.75;;
23474;SDS011;11910;52.086;21.066;2022-08-19T09:09:49;17.02;;;10.10;;
23474;SDS011;11910;52.086;21.066;2022-08-19T09:14:58;15.43;;;9.73;;
23474;SDS011;11910;52.086;21.066;2022-08-19T09:17:29;18.65;;;9.93;;
23474;SDS011;11910;52.086;21.066;2022-08-19T09:22:39;16.10;;;9.77;;
23474;SDS011;11910;52.086;21.066;2022-08-19T09:25:09;13.50;;;10.00;;
23474;SDS011;11910;52.086;21.066;2022-08-19T09:27:36;12.73;;;9.73;;
23474;SDS011;11910;52.086;21.066;2022-08-19T09:30:03;15.05;;;9.18;;
23474;SDS011;11910;52.086;21.066;2022-08-19T09:32:30;10.88;;;8.63;;
23474;SDS011;11910;52.086;21.066;2022-08-19T09:34:56;12.88;;;9.18;;
23474;SDS011;11910;52.086;21.066;2022-08-19T09:37:23;11.75;;;9.13;;
23474;SDS011;11910;52.086;21.066;2022-08-19T09:39:49;13.73;;;8.65;;
23474;SDS011;11910;52.086;21.066;2022-08-19T09:42:15;16.58;;;8.60;;
23474;SDS011;11910;52.086;21.066;2022-08-19T09:44:41;12.68;;;8.52;;
23474;SDS011;11910;52.086;21.066;2022-08-19T09:47:08;13.35;;;9.10;;
23474;SDS011;11910;52.086;21.066;2022-08-19T09:49:36;13.65;;;8.70;;
23474;SDS011;11910;52.086;21.066;2022-08-19T09:52:02;16.88;;;9.20;;
23474;SDS011;11910;52.086;21.066;2022-08-19T09:54:28;19.30;;;8.38;;
23474;SDS011;11910;52.086;21.066;2022-08-19T09:56:54;13.95;;;8.63;;
23474;SDS011;11910;52.086;21.066;2022-08-19T09:59:20;15.55;;;8.68;;
23474;SDS011;11910;52.086;21.066;2022-08-19T10:01:46;11.30;;;8.40;;
23474;SDS011;11910;52.086;21.066;2022-08-19T10:04:12;13.65;;;8.70;;
23474;SDS011;11910;52.086;21.066;2022-08-19T10:06:39;14.57;;;9.15;;
23474;SDS011;11910;52.086;21.066;2022-08-19T10:09:07;13.88;;;8.07;;
23474;SDS011;11910;52.086;21.066;2022-08-19T10:11:34;16.00;;;8.70;;
23474;SDS011;11910;52.086;21.066;2022-08-19T10:14:01;16.13;;;9.00;;
23474;SDS011;11910;52.086;21.066;2022-08-19T10:16:30;18.58;;;8.60;;
23474;SDS011;11910;52.086;21.066;2022-08-19T10:18:56;13.77;;;8.90;;
23474;SDS011;11910;52.086;21.066;2022-08-19T10:21:23;10.38;;;9.20;;
23474;SDS011;11910;52.086;21.066;2022-08-19T10:23:51;15.25;;;8.98;;
23474;SDS011;11910;52.086;21.066;2022-08-19T10:26:20;10.57;;;8.57;;
23474;SDS011;11910;52.086;21.066;2022-08-19T10:28:50;15.20;;;9.73;;
23474;SDS011;11910;52.086;21.066;2022-08-19T10:31:25;14.07;;;9.32;;
23474;SDS011;11910;52.086;21.066;2022-08-19T10:33:53;14.43;;;10.40;;
23474;SDS011;11910;52.086;21.066;2022-08-19T10:36:22;19.10;;;10.45;;
23474;SDS011;11910;52.086;21.066;2022-08-19T10:38:57;18.33;;;10.25;;
23474;SDS011;11910;52.086;21.066;2022-08-19T10:41:30;17.27;;;9.43;;
23474;SDS011;11910;52.086;21.066;2022-08-19T10:43:58;18.83;;;10.02;;
23474;SDS011;11910;52.086;21.066;2022-08-19T10:46:26;15.02;;;10.10;;
23474;SDS011;11910;52.086;21.066;2022-08-19T10:48:56;16.13;;;10.40;;
23474;SDS011;11910;52.086;21.066;2022-08-19T10:51:21;13.45;;;10.35;;
23474;SDS011;11910;52.086;21.066;2022-08-19T10:54:06;16.50;;;9.65;;
23474;SDS011;11910;52.086;21.066;2022-08-19T10:56:32;15.13;;;10.20;;
23474;SDS011;11910;52.086;21.066;2022-08-19T10:59:17;13.13;;;9.73;;
23474;SDS011;11910;52.086;21.066;2022-08-19T11:01:52;13.75;;;10.65;;
23474;SDS011;11910;52.086;21.066;2022-08-19T11:04:20;15.98;;;10.65;;
23474;SDS011;11910;52.086;21.066;2022-08-19T11:06:47;16.58;;;10.57;;
23474;SDS011;11910;52.086;21.066;2022-08-19T11:09:14;16.50;;;10.40;;
23474;SDS011;11910;52.086;21.066;2022-08-19T11:11:42;14.20;;;10.38;;
23474;SDS011;11910;52.086;21.066;2022-08-19T11:14:09;16.65;;;10.80;;
23474;SDS011;11910;52.086;21.066;2022-08-19T11:16:36;14.65;;;10.10;;
23474;SDS011;11910;52.086;21.066;2022-08-19T11:19:04;11.43;;;10.25;;
23474;SDS011;11910;52.086;21.066;2022-08-19T11:21:34;19.60;;;9.80;;
23474;SDS011;11910;52.086;21.066;2022-08-19T11:24:04;12.93;;;9.80;;
23474;SDS011;11910;52.086;21.066;2022-08-19T11:26:38;11.95;;;9.43;;
23474;SDS011;11910;52.086;21.066;2022-08-19T11:29:06;12.48;;;9.80;;
23474;SDS011;11910;52.086;21.066;2022-08-19T11:31:36;13.95;;;10.48;;
23474;SDS011;11910;52.086;21.066;2022-08-19T11:34:05;18.17;;;10.20;;
23474;SDS011;11910;52.086;21.066;2022-08-19T11:36:32;13.45;;;9.00;;
23474;SDS011;11910;52.086;21.066;2022-08-19T11:38:59;16.45;;;9.48;;
23474;SDS011;11910;52.086;21.066;2022-08-19T11:41:25;16.38;;;8.90;;
23474;SDS011;11910;52.086;21.066;2022-08-19T11:43:51;13.95;;;9.93;;
23474;SDS011;11910;52.086;21.066;2022-08-19T11:46:20;13.13;;;10.20;;
23474;SDS011;11910;52.086;21.066;2022-08-19T11:48:47;14.00;;;9.45;;
23474;SDS011;11910;52.086;21.066;2022-08-19T11:51:15;17.80;;;9.60;;
23474;SDS011;11910;52.086;21.066;2022-08-19T11:53:43;15.90;;;9.82;;
23474;SDS011;11910;52.086;21.066;2022-08-19T11:56:10;15.30;;;10.00;;
23474;SDS011;11910;52.086;21.066;2022-08-19T11:58:37;14.18;;;9.70;;
23474;SDS011;11910;52.086;21.066;2022-08-19T12:01:07;16.90;;;10.05;;
23474;SDS011;11910;52.086;21.066;2022-08-19T12:03:34;12.60;;;9.13;;
23474;SDS011;11910;52.086;21.066;2022-08-19T12:06:10;15.38;;;9.88;;
23474;SDS011;11910;52.086;21.066;2022-08-19T12:08:39;11.40;;;9.05;;
23474;SDS011;11910;52.086;21.066;2022-08-19T12:11:05;14.88;;;9.70;;
23474;SDS011;11910;52.086;21.066;2022-08-19T12:13:35;13.88;;;10.05;;
23474;SDS011;11910;52.086;21.066;2022-08-19T12:16:06;16.77;;;9.98;;
23474;SDS011;11910;52.086;21.066;2022-08-19T12:18:37;19.10;;;9.32;;
23474;SDS011;11910;52.086;21.066;2022-08-19T12:21:06;13.85;;;9.73;;
23474;SDS011;11910;52.086;21.066;2022-08-19T12:23:33;12.48;;;9.00;;
23474;SDS011;11910;52.086;21.066;2022-08-19T12:25:58;13.93;;;8.93;;
23474;SDS011;11910;52.086;21.066;2022-08-19T12:28:24;12.40;;;9.48;;
23474;SDS011;11910;52.086;21.066;2022-08-19T12:30:50;16.13;;;9.23;;
23474;SDS011;11910;52.086;21.066;2022-08-19T12:33:17;23.48;;;9.13;;
23474;SDS011;11910;52.086;21.066;2022-08-19T12:35:45;16.70;;;9.35;;
23474;SDS011;11910;52.086;21.066;2022-08-19T12:38:12;9.63;;;8.70;;
23474;SDS011;11910;52.086;21.066;2022-08-19T12:40:39;10.90;;;8.80;;
23474;SDS011;11910;52.086;21.066;2022-08-19T12:43:05;14.77;;;9.52;;
23474;SDS011;11910;52.086;21.066;2022-08-19T12:45:34;12.07;;;8.95;;
23474;SDS011;11910;52.086;21.066;2022-08-19T12:48:00;15.65;;;9.10;;
23474;SDS011;11910;52.086;21.066;2022-08-19T12:50:25;13.82;;;8.75;;
23474;SDS011;11910;52.086;21.066;2022-08-19T12:52:51;14.07;;;9.10;;
23474;SDS011;11910;52.086;21.066;2022-08-19T12:55:17;16.55;;;9.00;;
23474;SDS011;11910;52.086;21.066;2022-08-19T12:57:44;19.05;;;9.32;;
23474;SDS011;11910;52.086;21.066;2022-08-19T13:00:12;20.27;;;8.38;;
23474;SDS011;11910;52.086;21.066;2022-08-19T13:02:40;12.88;;;8.50;;
23474;SDS011;11910;52.086;21.066;2022-08-19T13:05:09;15.95;;;8.40;;
23474;SDS011;11910;52.086;21.066;2022-08-19T13:07:38;18.95;;;8.65;;
23474;SDS011;11910;52.086;21.066;2022-08-19T13:10:06;13.63;;;8.60;;
23474;SDS011;11910;52.086;21.066;2022-08-19T13:12:33;13.98;;;8.40;;
23474;SDS011;11910;52.086;21.066;2022-08-19T13:14:59;12.02;;;7.88;;
23474;SDS011;11910;52.086;21.066;2022-08-19T13:17:25;15.30;;;8.02;;
23474;SDS011;11910;52.086;21.066;2022-08-19T13:19:51;12.82;;;7.93;;
23474;SDS011;11910;52.086;21.066;2022-08-19T13:22:17;14.57;;;7.68;;
23474;SDS011;11910;52.086;21.066;2022-08-19T13:24:43;15.65;;;8.48;;
23474;SDS011;11910;52.086;21.066;2022-08-19T13:27:09;18.67;;;8.07;;
23474;SDS011;11910;52.086;21.066;2022-08-19T13:29:57;15.25;;;7.93;;
23474;SDS011;11910;52.086;21.066;2022-08-19T13:32:41;12.18;;;7.80;;
23474;SDS011;11910;52.086;21.066;2022-08-19T13:35:25;13.93;;;7.43;;
23474;SDS011;11910;52.086;21.066;2022-08-19T13:37:50;10.68;;;7.75;;
23474;SDS011;11910;52.086;21.066;2022-08-19T13:40:20;12.77;;;8.32;;
23474;SDS011;11910;52.086;21.066;2022-08-19T13:42:50;11.77;;;8.20;;
23474;SDS011;11910;52.086;21.066;2022-08-19T13:45:17;10.77;;;8.00;;
23474;SDS011;11910;52.086;21.066;2022-08-19T13:47:48;15.23;;;8.02;;
23474;SDS011;11910;52.086;21.066;2022-08-19T13:50:17;16.48;;;7.63;;
23474;SDS011;11910;52.086;21.066;2022-08-19T13:52:44;11.88;;;7.53;;
23474;SDS011;11910;52.086;21.066;2022-08-19T13:55:11;16.15;;;7.53;;
23474;SDS011;11910;52.086;21.066;2022-08-19T13:57:38;15.18;;;8.23;;
23474;SDS011;11910;52.086;21.066;2022-08-19T14:00:05;12.13;;;7.32;;
23474;SDS011;11910;52.086;21.066;2022-08-19T14:05:01;11.55;;;7.90;;
23474;SDS011;11910;52.086;21.066;2022-08-19T14:07:27;12.40;;;7.72;;
23474;SDS011;11910;52.086;21.066;2022-08-19T14:09:52;11.45;;;7.03;;
23474;SDS011;11910;52.086;21.066;2022-08-19T14:12:19;19.13;;;8.10;;
23474;SDS011;11910;52.086;21.066;2022-08-19T14:14:45;14.50;;;7.10;;
23474;SDS011;11910;52.086;21.066;2022-08-19T14:17:11;11.88;;;7.25;;
23474;SDS011;11910;52.086;21.066;2022-08-19T14:19:37;17.20;;;7.32;;
23474;SDS011;11910;52.086;21.066;2022-08-19T14:22:03;13.43;;;7.40;;
23474;SDS011;11910;52.086;21.066;2022-08-19T14:24:29;13.73;;;7.20;;
23474;SDS011;11910;52.086;21.066;2022-08-19T14:26:55;14.07;;;7.45;;
23474;SDS011;11910;52.086;21.066;2022-08-19T14:29:22;14.68;;;6.63;;
23474;SDS011;11910;52.086;21.066;2022-08-19T14:31:48;10.52;;;6.60;;
23474;SDS011;11910;52.086;21.066;2022-08-19T14:34:14;13.02;;;6.65;;
23474;SDS011;11910;52.086;21.066;2022-08-19T14:36:39;13.88;;;5.88;;
23474;SDS011;11910;52.086;21.066;2022-08-19T14:39:07;14.35;;;6.75;;